Schneifelwetter: Wetterstation Hallschlag, 537 m . NN
Wetterdaten: Samstag, 14.06.2008
Datum Zeit Temp. A. Temp. 2 Feuchte A. Luftdruck Regen Wind Richtung Richtung Sonnenschein Helligkeit T Regen Taupunkt Windchill
14.06.2008 00:02 5,2 C 3,8 C 86 % 1015 hPa 0,0 l/m 1,0 km/h (0 Bft) W 260 0 min 0 lux 0,00 min 3,1 C 5,2 C
14.06.2008 00:17 4,9 C 3,7 C 87 % 1015 hPa 0,0 l/m 0,0 km/h (0 Bft) W 260 0 min 0 lux 0,00 min 2,9 C 4,9 C
14.06.2008 00:32 4,9 C 3,9 C 88 % 1015 hPa 0,0 l/m 0,0 km/h (0 Bft) W 260 0 min 0 lux 0,00 min 3,1 C 4,9 C
14.06.2008 00:46 5,1 C 4,2 C 89 % 1015 hPa 0,0 l/m 0,0 km/h (0 Bft) W 260 0 min 0 lux 0,00 min 3,4 C 5,1 C
14.06.2008 01:01 5,2 C 4,4 C 89 % 1015 hPa 0,0 l/m 0,0 km/h (0 Bft) W-SW 255 0 min 0 lux 0,00 min 3,5 C 5,2 C
14.06.2008 01:16 5,2 C 4,5 C 89 % 1015 hPa 0,0 l/m 0,0 km/h (0 Bft) W-SW 255 0 min 0 lux 0,00 min 3,5 C 5,2 C
14.06.2008 01:31 5,3 C 4,6 C 89 % 1015 hPa 0,0 l/m 0,0 km/h (0 Bft) W-SW 255 0 min 0 lux 0,00 min 3,6 C 5,3 C
14.06.2008 01:46 5,1 C 4,3 C 89 % 1015 hPa 0,0 l/m 0,0 km/h (0 Bft) W-SW 250 0 min 0 lux 0,00 min 3,4 C 5,1 C
14.06.2008 02:01 5,1 C 4,3 C 90 % 1015 hPa 0,0 l/m 0,6 km/h (0 Bft) W-SW 250 0 min 0 lux 0,00 min 3,6 C 5,1 C
14.06.2008 02:16 5,2 C 4,6 C 90 % 1015 hPa 0,0 l/m 0,0 km/h (0 Bft) W-SW 250 0 min 0 lux 0,00 min 3,7 C 5,2 C
14.06.2008 02:31 5,4 C 4,9 C 91 % 1015 hPa 0,0 l/m 2,3 km/h (1 Bft) W-SW 255 0 min 0 lux 0,00 min 4,1 C 5,4 C
14.06.2008 02:46 5,6 C 5,1 C 91 % 1015 hPa 0,0 l/m 0,0 km/h (0 Bft) W-SW 250 0 min 0 lux 0,00 min 4,2 C 5,6 C
14.06.2008 03:01 5,7 C 5,1 C 91 % 1015 hPa 0,0 l/m 0,0 km/h (0 Bft) W-SW 250 0 min 0 lux 0,00 min 4,3 C 5,7 C
14.06.2008 03:16 5,7 C 4,8 C 90 % 1015 hPa 0,0 l/m 0,0 km/h (0 Bft) W-SW 250 0 min 0 lux 0,00 min 4,2 C 5,7 C
14.06.2008 03:31 5,5 C 4,3 C 90 % 1015 hPa 0,0 l/m 0,0 km/h (0 Bft) W-SW 250 0 min 0 lux 0,00 min 4,0 C 5,5 C
14.06.2008 03:46 5,2 C 3,8 C 90 % 1014 hPa 0,0 l/m 0,0 km/h (0 Bft) W-SW 250 0 min 0 lux 0,00 min 3,7 C 5,2 C
14.06.2008 04:01 4,8 C 3,6 C 91 % 1014 hPa 0,0 l/m 4,7 km/h (1 Bft) W-SW 250 0 min 0 lux 0,00 min 3,5 C 4,8 C
14.06.2008 04:16 4,9 C 4,1 C 92 % 1014 hPa 0,0 l/m 4,6 km/h (1 Bft) W-SW 250 0 min 0 lux 0,00 min 3,7 C 4,9 C
14.06.2008 04:31 5,2 C 4,5 C 92 % 1014 hPa 0,0 l/m 8,5 km/h (2 Bft) W-SW 250 0 min 0 lux 0,00 min 4,0 C 3,4 C
14.06.2008 04:46 5,6 C 5,1 C 93 % 1014 hPa 0,0 l/m 7,5 km/h (2 Bft) W 260 0 min 0 lux 0,00 min 4,6 C 4,6 C
14.06.2008 05:01 6,0 C 5,4 C 93 % 1014 hPa 0,0 l/m 13,9 km/h (3 Bft) W-SW22.5 250 0 min 0 lux 0,00 min 5,0 C 0,8 C
14.06.2008 05:16 6,1 C 5,6 C 93 % 1014 hPa 0,0 l/m 8,6 km/h (2 Bft) W22.5 265 0 min 120 lux 0,00 min 5,1 C 4,3 C
14.06.2008 05:31 6,2 C 5,5 C 92 % 1014 hPa 0,0 l/m 8,9 km/h (2 Bft) W-SW22.5 255 0 min 499 lux 0,00 min 5,0 C 4,2 C
14.06.2008 05:46 6,2 C 5,4 C 91 % 1014 hPa 0,0 l/m 9,1 km/h (2 Bft) W 260 0 min 784 lux 0,00 min 4,8 C 4,0 C
14.06.2008 06:01 6,1 C 5,5 C 92 % 1014 hPa 0,0 l/m 8,5 km/h (2 Bft) W-SW22.5 255 0 min 1,03 klux 0,00 min 4,9 C 4,4 C
14.06.2008 06:16 6,1 C 5,6 C 92 % 1014 hPa 0,0 l/m 8,2 km/h (2 Bft) W-SW 250 0 min 2,62 klux 0,00 min 4,9 C 4,6 C
14.06.2008 06:31 6,3 C 5,7 C 92 % 1014 hPa 0,0 l/m 5,7 km/h (1 Bft) W-SW 255 0 min 4,18 klux 0,00 min 5,1 C 6,3 C
14.06.2008 06:46 6,4 C 5,6 C 91 % 1014 hPa 0,0 l/m 10,0 km/h (2 Bft) W-SW 250 0 min 6,03 klux 0,00 min 5,0 C 3,6 C
14.06.2008 07:01 7,0 C 5,6 C 91 % 1014 hPa 0,0 l/m 9,9 km/h (2 Bft) W-SW22.5 255 0 min 11,2 klux 0,00 min 5,6 C 4,3 C
14.06.2008 07:16 7,8 C 6,0 C 89 % 1014 hPa 0,0 l/m 11,3 km/h (2 Bft) W-SW22.5 255 0 min 18,3 klux 0,00 min 6,1 C 4,4 C
14.06.2008 07:31 9,1 C 7,0 C 86 % 1014 hPa 0,0 l/m 16,1 km/h (3 Bft) W22.5 260 0 min 26,1 klux 0,00 min 6,9 C 3,6 C
14.06.2008 07:46 10,0 C 7,7 C 84 % 1014 hPa 0,0 l/m 16,8 km/h (3 Bft) W-SW22.5 255 0 min 40,3 klux 0,00 min 7,4 C 4,4 C
14.06.2008 08:01 11,6 C 8,8 C 79 % 1014 hPa 0,0 l/m 25,9 km/h (4 Bft) W45 265 0 min 45,4 klux 0,00 min 8,1 C 3,8 C
14.06.2008 08:16 12,6 C 9,5 C 75 % 1014 hPa 0,0 l/m 20,1 km/h (4 Bft) W-SW22.5 255 0 min 44,8 klux 0,00 min 8,3 C 6,6 C
14.06.2008 08:31 12,9 C 10,1 C 72 % 1014 hPa 0,0 l/m 23,9 km/h (4 Bft) W22.5 260 0 min 48,4 klux 0,00 min 8,0 C 6,0 C
14.06.2008 08:46 13,3 C 10,4 C 71 % 1014 hPa 0,0 l/m 25,0 km/h (4 Bft) W-SW22.5 255 0 min 50,7 klux 0,00 min 8,2 C 6,3 C
14.06.2008 09:01 13,7 C 10,9 C 70 % 1014 hPa 0,0 l/m 25,2 km/h (4 Bft) W-SW45 255 0 min 54,4 klux 0,00 min 8,3 C 6,8 C
14.06.2008 09:17 14,3 C 11,6 C 67 % 1014 hPa 0,0 l/m 21,0 km/h (4 Bft) W-SW45 255 0 min 58,6 klux 0,00 min 8,3 C 8,6 C
14.06.2008 09:32 15,0 C 12,1 C 68 % 1014 hPa 0,0 l/m 22,5 km/h (4 Bft) W-SW22.5 245 15 min 65,4 klux 0,00 min 9,1 C 9,1 C
14.06.2008 09:46 15,7 C 13,3 C 65 % 1014 hPa 0,0 l/m 17,1 km/h (3 Bft) SW45 230 14 min 80,4 klux 0,00 min 9,1 C 11,4 C
14.06.2008 10:01 13,9 C 12,4 C 63 % 1014 hPa 0,0 l/m 18,3 km/h (3 Bft) W-SW67.5 240 0 min 19,0 klux 0,00 min 7,0 C 8,8 C
14.06.2008 10:16 12,3 C 11,8 C 66 % 1014 hPa 0,0 l/m 23,5 km/h (4 Bft) W22.5 270 0 min 15,1 klux 0,00 min 6,1 C 5,3 C
14.06.2008 10:31 12,0 C 11,9 C 68 % 1014 hPa 0,0 l/m 18,6 km/h (3 Bft) W22.5 265 0 min 27,6 klux 0,00 min 6,3 C 6,3 C
14.06.2008 10:46 12,7 C 12,8 C 68 % 1014 hPa 0,0 l/m 20,0 km/h (4 Bft) W45 260 15 min 97,2 klux 0,00 min 6,9 C 6,8 C
14.06.2008 11:01 14,0 C 13,5 C 57 % 1014 hPa 0,0 l/m 29,7 km/h (5 Bft) W22.5 265 15 min 109 klux 0,00 min 5,6 C 6,3 C
14.06.2008 11:17 15,0 C 14,6 C 60 % 1014 hPa 0,0 l/m 31,3 km/h (5 Bft) W45 265 16 min 93,3 klux 0,00 min 7,3 C 7,5 C
14.06.2008 11:32 15,2 C 14,7 C 59 % 1014 hPa 0,0 l/m 23,2 km/h (4 Bft) W-SW22.5 250 15 min 80,9 klux 0,00 min 7,2 C 9,3 C
14.06.2008 11:46 15,9 C 15,6 C 53 % 1014 hPa 0,0 l/m 31,1 km/h (5 Bft) W22.5 260 14 min 86,3 klux 0,00 min 6,3 C 8,8 C
14.06.2008 12:01 16,4 C 16,3 C 45 % 1014 hPa 0,0 l/m 31,1 km/h (5 Bft) W45 270 15 min 93,6 klux 0,00 min 4,4 C 9,5 C
14.06.2008 12:16 16,1 C 16,5 C 47 % 1014 hPa 0,0 l/m 31,3 km/h (5 Bft) W22.5 265 15 min 96,0 klux 0,00 min 4,8 C 9,0 C
14.06.2008 12:31 15,8 C 16,8 C 49 % 1014 hPa 0,0 l/m 26,1 km/h (4 Bft) W45 260 15 min 106 klux 0,00 min 5,1 C 9,5 C
14.06.2008 12:46 15,2 C 15,9 C 52 % 1014 hPa 0,0 l/m 28,0 km/h (4 Bft) W45 270 15 min 93,8 klux 0,00 min 5,4 C 8,3 C
14.06.2008 13:02 16,6 C 17,9 C 50 % 1014 hPa 0,0 l/m 32,2 km/h (5 Bft) W-SW45 255 16 min 109 klux 0,00 min 6,1 C 9,6 C
14.06.2008 13:17 16,8 C 16,8 C 46 % 1014 hPa 0,0 l/m 23,9 km/h (4 Bft) SW45 235 15 min 95,9 klux 0,00 min 5,1 C 11,3 C
14.06.2008 13:31 15,8 C 16,4 C 50 % 1014 hPa 0,0 l/m 26,9 km/h (4 Bft) SW67.5 235 0 min 45,2 klux 0,00 min 5,4 C 9,3 C
14.06.2008 13:46 15,5 C 15,2 C 54 % 1014 hPa 0,0 l/m 32,0 km/h (5 Bft) SW45 235 0 min 51,1 klux 0,00 min 6,2 C 8,1 C
14.06.2008 14:01 16,2 C 16,3 C 54 % 1014 hPa 0,0 l/m 39,4 km/h (6 Bft) W67.5 260 15 min 85,8 klux 0,00 min 6,9 C 8,2 C
14.06.2008 14:16 15,7 C 15,0 C 53 % 1014 hPa 0,0 l/m 33,6 km/h (5 Bft) W22.5 260 0 min 37,6 klux 0,00 min 6,1 C 8,1 C
14.06.2008 14:31 15,2 C 14,7 C 55 % 1014 hPa 0,0 l/m 25,7 km/h (4 Bft) W-SW45 250 0 min 49,0 klux 0,00 min 6,2 C 8,7 C
14.06.2008 14:47 15,2 C 14,7 C 56 % 1014 hPa 0,0 l/m 26,7 km/h (4 Bft) W45 270 0 min 42,9 klux 0,00 min 6,5 C 8,5 C
14.06.2008 15:02 14,4 C 14,4 C 55 % 1014 hPa 0,0 l/m 26,7 km/h (4 Bft) W-SW45 255 0 min 37,5 klux 0,00 min 5,5 C 7,4 C
14.06.2008 15:16 14,8 C 15,2 C 56 % 1014 hPa 0,0 l/m 26,6 km/h (4 Bft) W22.5 260 0 min 54,9 klux 0,00 min 6,1 C 8,0 C
14.06.2008 15:31 15,6 C 16,3 C 54 % 1013 hPa 0,0 l/m 29,6 km/h (5 Bft) W-SW22.5 255 15 min 85,3 klux 0,00 min 6,3 C 8,6 C
14.06.2008 15:46 15,2 C 14,4 C 53 % 1014 hPa 0,0 l/m 30,4 km/h (5 Bft) W22.5 260 0 min 38,9 klux 0,00 min 5,7 C 7,9 C
14.06.2008 16:01 14,7 C 15,1 C 61 % 1014 hPa 0,0 l/m 24,1 km/h (4 Bft) W45 270 15 min 84,3 klux 0,00 min 7,3 C 8,4 C
14.06.2008 16:16 15,4 C 16,0 C 58 % 1013 hPa 0,0 l/m 18,0 km/h (3 Bft) S-SW45 210 15 min 75,5 klux 0,00 min 7,2 C 10,8 C
14.06.2008 16:31 15,4 C 16,2 C 58 % 1013 hPa 0,0 l/m 18,6 km/h (3 Bft) SW45 235 0 min 54,6 klux 0,00 min 7,2 C 10,6 C
14.06.2008 16:47 15,6 C 17,0 C 57 % 1013 hPa 0,0 l/m 21,4 km/h (4 Bft) SW67.5 230 0 min 57,9 klux 0,00 min 7,1 C 10,2 C
14.06.2008 17:01 15,4 C 16,8 C 56 % 1013 hPa 0,0 l/m 21,3 km/h (4 Bft) W-SW67.5 245 0 min 54,9 klux 0,00 min 6,7 C 9,9 C
14.06.2008 17:16 14,8 C 15,3 C 57 % 1013 hPa 0,0 l/m 19,8 km/h (3 Bft) W-SW45 255 0 min 28,4 klux 0,00 min 6,4 C 9,5 C
14.06.2008 17:31 14,0 C 14,1 C 58 % 1013 hPa 0,0 l/m 20,8 km/h (4 Bft) W22.5 270 0 min 14,4 klux 0,00 min 5,9 C 8,2 C
14.06.2008 17:46 13,9 C 13,6 C 59 % 1013 hPa 0,0 l/m 17,0 km/h (3 Bft) W22.5 275 0 min 20,2 klux 0,00 min 6,0 C 9,2 C
14.06.2008 18:01 14,1 C 14,3 C 59 % 1013 hPa 0,0 l/m 24,6 km/h (4 Bft) W45 270 0 min 37,4 klux 0,00 min 6,2 C 7,5 C
14.06.2008 18:16 14,4 C 14,3 C 58 % 1013 hPa 0,0 l/m 21,1 km/h (4 Bft) W45 270 0 min 25,2 klux 0,00 min 6,2 C 8,7 C
14.06.2008 18:32 14,3 C 14,4 C 57 % 1013 hPa 0,0 l/m 19,6 km/h (3 Bft) W45 270 0 min 43,8 klux 0,00 min 5,9 C 8,9 C
14.06.2008 18:47 13,6 C 14,0 C 63 % 1013 hPa 0,0 l/m 22,0 km/h (4 Bft) W45 265 0 min 35,4 klux 0,00 min 6,7 C 7,4 C
14.06.2008 19:01 13,1 C 13,6 C 64 % 1013 hPa 0,0 l/m 31,3 km/h (5 Bft) W45 280 0 min 25,6 klux 0,00 min 6,4 C 4,8 C
14.06.2008 19:16 12,4 C 13,0 C 66 % 1013 hPa 0,0 l/m 22,6 km/h (4 Bft) W22.5 265 0 min 17,2 klux 0,00 min 6,2 C 5,7 C
14.06.2008 19:31 12,3 C 12,6 C 66 % 1013 hPa 0,0 l/m 13,1 km/h (3 Bft) W45 280 0 min 12,5 klux 0,00 min 6,1 C 8,7 C
14.06.2008 19:46 12,1 C 12,0 C 67 % 1013 hPa 0,0 l/m 15,6 km/h (3 Bft) W45 270 0 min 8,99 klux 0,00 min 6,2 C 7,5 C
14.06.2008 20:01 11,7 C 11,6 C 67 % 1013 hPa 0,0 l/m 11,0 km/h (2 Bft) W22.5 265 0 min 7,35 klux 0,00 min 5,8 C 9,0 C
14.06.2008 20:17 11,5 C 11,4 C 67 % 1013 hPa 0,0 l/m 15,0 km/h (3 Bft) W45 275 0 min 7,87 klux 0,00 min 5,6 C 7,0 C
14.06.2008 20:32 11,3 C 11,1 C 68 % 1013 hPa 0,0 l/m 11,3 km/h (2 Bft) W22.5 265 0 min 6,61 klux 0,00 min 5,6 C 8,4 C
14.06.2008 20:46 11,1 C 10,8 C 68 % 1013 hPa 0,0 l/m 12,5 km/h (3 Bft) W22.5 270 0 min 6,34 klux 0,00 min 5,4 C 7,5 C
14.06.2008 21:01 10,8 C 10,6 C 69 % 1013 hPa 0,0 l/m 11,0 km/h (2 Bft) W22.5 265 0 min 5,42 klux 0,00 min 5,3 C 7,9 C
14.06.2008 21:16 10,6 C 10,1 C 70 % 1013 hPa 0,0 l/m 9,5 km/h (2 Bft) W22.5 260 0 min 3,89 klux 0,00 min 5,4 C 8,5 C
14.06.2008 21:31 10,0 C 9,7 C 71 % 1013 hPa 0,0 l/m 12,1 km/h (2 Bft) W22.5 265 0 min 1,30 klux 0,00 min 5,0 C 6,5 C
14.06.2008 21:46 9,6 C 9,4 C 73 % 1013 hPa 0,0 l/m 9,6 km/h (2 Bft) W 265 0 min 428 lux 0,00 min 5,0 C 7,4 C
14.06.2008 22:02 9,4 C 9,1 C 74 % 1013 hPa 0,0 l/m 4,3 km/h (1 Bft) SW 235 0 min 159 lux 0,00 min 5,0 C 9,4 C
14.06.2008 22:17 9,2 C 8,9 C 75 % 1013 hPa 0,0 l/m 0,7 km/h (0 Bft) SW 235 0 min 68 lux 0,00 min 5,0 C 9,2 C
14.06.2008 22:31 8,8 C 8,4 C 75 % 1013 hPa 0,0 l/m 3,6 km/h (1 Bft) W-SW 240 0 min 22 lux 0,00 min 4,6 C 8,8 C
14.06.2008 22:46 8,3 C 7,7 C 76 % 1013 hPa 0,0 l/m 0,2 km/h (0 Bft) W-SW 240 0 min 6 lux 0,00 min 4,3 C 8,3 C
14.06.2008 23:01 7,8 C 7,3 C 78 % 1013 hPa 0,0 l/m 0,0 km/h (0 Bft) W-SW 240 0 min 0 lux 0,00 min 4,2 C 7,8 C
14.06.2008 23:16 7,6 C 6,9 C 79 % 1013 hPa 0,0 l/m 3,3 km/h (1 Bft) W-SW 240 0 min 0 lux 0,00 min 4,2 C 7,6 C
14.06.2008 23:31 7,4 C 6,6 C 79 % 1013 hPa 0,0 l/m 3,3 km/h (1 Bft) W-SW 240 0 min 0 lux 0,00 min 4,0 C 7,4 C
14.06.2008 23:47 7,2 C 6,6 C 81 % 1013 hPa 0,0 l/m 8,1 km/h (2 Bft) W-SW 250 0 min 0 lux 0,00 min 4,2 C 5,8 C
_ Min-Zeit 04:01 04:01 12:01 15:31 - 00:17 - - - - - 00:17 05:01
Minimum _ 4,8 C 3,6 C 45 % 1013 hPa - 0,0 km/h (0 Bft) - - - - - 2,9 C 0,8 C
_ Max-Zeit 13:17 13:02 04:46 00:02 00:02 14:01 - - 11:17 11:01 00:02 09:32 09:46
Maximum _ 16,8 C 17,9 C 93 % 1015 hPa 0,0 l/m 39,4 km/h
W (6 Bft)
- - 16 min 109 klux 0,00 min 9,1 C 11,4 C
Durchschnitt _ 10,8 C 10,2 C 72 % 1014 hPa #0,0 l/m 15,1 km/h (3 Bft) W - #4:15 h 29,6 klux #0 min. 5,6 C 7,0 C